Bei Facebook empfehlenBei Twitter postenGoogle plusPinterest

Das Wetter im Erzgebirge am 13.07.2016

Wetter und Klima am 13.07.2016 Holzhau im Erzgebirge (630m ü.NN)
Letzte gemessene Temperatur und Uhrzeit der Messung23:45:00 Uhr12.30 °C
Temperatur (Maximum / Höchstwert) und Uhrzeit der Messung12:30:00 Uhr22.60 °C
Temperatur (Minimum / Tiefstwert) und Uhrzeit der Messung05:45:0010.80 °C
Errechneter Absolutwert der Temperaturschwankungen zwischen Tmin und Tmax des Tages11.80 K
Errechnete Tagesmitteltemperatur16.06563 °C
Gesamt - Niederschlag des Tages (in flüssiger Form)2.07 Liter / m²
Luftdruck (Maximum / Höchstwert) und Zeitpunkt der Messung13:30:00 Uhr1011.20 hPa
Luftdruck (Minimum / Tiefstwert) und Zeitpunkt der Messung06:00:00 Uhr1009.40 hPa
Errechneter Absolutwert der Luftdruckschwankungen des Tages1.80 hPa
Höchste gemessene Windgeschwindigkeit und Uhrzeit der Messung23:45:00 Uhr0.00 km/h
Errechnete Windhäufigkeit in Relation zu den Messwerten des Tages0.00000 %
Niedrigste Windkühle (Windchill) und Zeitpunkt der Messung05:45:00 Uhr10.80 °C
Taupunkt (Maximum / Höchstwert) und Uhrzeit der Messung15:15:00 Uhr15.80 °C
Taupunkt (Minimum / Tiefstwert) und Uhrzeit der Messung03:45:009.20 °C
Anzahl der automatisch eingelesenen Messwerte 96

Detaillierte Wetter- und Klima- Messwerte für den 13.07.2016 in Holzhau im Erzgebirge (630m ü.NN)
ZeitTemperaturLuftdruckRel. LuftfeuchteWindWindrichtungWindchillTaupunktNiederschlag l/m²
23:45:0012.30 °C1010.30 hPa90.00 %10.70 °C2.07
23:30:0012.30 °C1010.20 hPa90.00 %10.70 °C1.56
23:15:0012.40 °C1010.20 hPa90.00 %10.80 °C1.56
23:00:0012.70 °C1010.40 hPa89.00 %10.90 °C1.56
22:45:0012.90 °C1010.50 hPa89.00 %11.10 °C1.04
22:30:0013.10 °C1010.40 hPa88.00 %11.20 °C1.04
22:15:0013.40 °C1010.50 hPa87.00 %11.30 °C1.04
22:00:0013.40 °C1010.50 hPa86.00 %11.10 °C1.04
21:45:0013.60 °C1010.40 hPa85.00 %11.10 °C1.04
21:30:0013.90 °C1010.20 hPa83.00 %11.10 °C1.04
21:15:0014.40 °C1010.30 hPa81.00 %11.20 °C1.04
21:00:0015.30 °C1010.20 hPa79.00 %11.70 °C0.52
20:45:0015.70 °C1010.10 hPa78.00 %11.90 °C0.52
20:30:0015.90 °C1010.10 hPa76.00 %11.70 °C0.52
20:15:0016.20 °C1010.30 hPa75.00 %11.80 °C0.52
20:00:0016.50 °C1010.20 hPa74.00 %11.90 °C0.52
19:45:0016.80 °C1010.10 hPa72.00 %11.70 °C0.52
19:30:0017.20 °C1010.00 hPa71.00 %11.90 °C0.52
19:15:0017.90 °C1010.40 hPa70.00 %12.40 °C0.52
19:00:0018.30 °C1010.10 hPa68.00 %12.30 °C0.52
18:45:0018.80 °C1010.00 hPa66.00 %12.30 °C0.52
18:30:0019.20 °C1009.80 hPa65.00 %12.50 °C0.52
18:15:0019.40 °C1010.00 hPa64.00 %12.40 °C0.52
18:00:0019.60 °C1010.10 hPa64.00 %12.60 °C0.52
17:45:0019.90 °C1009.80 hPa67.00 %13.60 °C0.52
17:30:0020.40 °C1010.00 hPa66.00 %13.80 °C0.52
17:15:0020.80 °C1010.10 hPa66.00 %14.20 °C0.52
17:00:0021.40 °C1010.30 hPa64.00 %14.30 °C0.52
16:45:0021.60 °C1010.40 hPa64.00 %14.50 °C0.52
16:30:0021.90 °C1010.70 hPa64.00 %14.80 °C0.52
16:15:0021.30 °C1010.70 hPa67.00 %14.90 °C0.52
16:00:0021.30 °C1010.70 hPa65.00 %14.50 °C0.52
15:45:0021.30 °C1010.40 hPa66.00 %14.70 °C0.52
15:30:0021.80 °C1010.50 hPa67.00 %15.40 °C0.52
15:15:0021.50 °C1010.60 hPa70.00 %15.80 °C0.52
15:00:0020.60 °C1010.60 hPa74.00 %15.80 °C0.52
14:45:0019.80 °C1010.50 hPa77.00 %15.70 °C0.52
14:30:0019.30 °C1010.30 hPa80.00 %15.80 °C0.52
14:15:0018.50 °C1010.50 hPa84.00 %15.70 °C0.52
14:00:0016.40 °C1010.70 hPa85.00 %13.90 °C0.52
13:45:0014.50 °C1011.10 hPa80.00 %11.10 °C0.52
13:30:0015.30 °C1011.20 hPa77.00 %11.30 °C0.52
13:15:0017.10 °C1011.10 hPa72.00 %12.00 °C0.52
13:00:0020.10 °C1010.30 hPa60.00 %12.10 °C 
12:45:0021.90 °C1009.90 hPa57.00 %13.00 °C 
12:30:0022.60 °C1009.50 hPa60.00 %14.40 °C 
12:15:0022.40 °C1009.70 hPa60.00 %14.30 °C 
12:00:0022.20 °C1009.80 hPa61.00 %14.30 °C 
11:45:0022.40 °C1009.70 hPa62.00 %14.80 °C 
11:30:0022.50 °C1009.70 hPa63.00 %15.10 °C 
11:15:0022.40 °C1009.70 hPa65.00 %15.50 °C 
11:00:0020.80 °C1009.60 hPa67.00 %14.50 °C 
10:45:0020.90 °C1009.60 hPa68.00 %14.80 °C 
10:30:0020.80 °C1009.70 hPa71.00 %15.40 °C 
10:15:0020.30 °C1009.60 hPa73.00 %15.30 °C 
10:00:0019.90 °C1009.60 hPa76.00 %15.50 °C 
09:45:0019.10 °C1009.60 hPa81.00 %15.80 °C 
09:30:0017.90 °C1009.70 hPa83.00 %15.00 °C 
09:15:0017.00 °C1009.70 hPa84.00 %14.30 °C 
09:00:0016.80 °C1009.80 hPa85.00 %14.30 °C 
08:45:0016.90 °C1009.90 hPa87.00 %14.70 °C 
08:30:0016.60 °C1009.70 hPa90.00 %15.00 °C 
08:15:0015.70 °C1009.70 hPa91.00 %14.20 °C 
08:00:0014.90 °C1009.80 hPa92.00 %13.60 °C 
07:45:0014.40 °C1009.90 hPa92.00 %13.10 °C 
07:30:0013.80 °C1009.90 hPa93.00 %12.70 °C 
07:15:0012.20 °C1009.80 hPa92.00 %10.90 °C 
07:00:0012.10 °C1009.60 hPa93.00 %11.00 °C 
06:45:0011.90 °C1009.80 hPa93.00 %10.80 °C 
06:30:0011.30 °C1009.80 hPa92.00 %10.00 °C 
06:15:0010.90 °C1009.90 hPa92.00 %9.70 °C 
06:00:0010.90 °C1009.40 hPa92.00 %9.70 °C 
05:45:0010.80 °C1009.70 hPa92.00 %9.60 °C 
05:30:0010.80 °C1009.80 hPa92.00 %9.60 °C 
05:15:0010.80 °C1009.70 hPa92.00 %9.60 °C 
05:00:0010.80 °C1010.00 hPa91.00 %9.40 °C 
04:45:0010.90 °C1009.90 hPa91.00 %9.50 °C 
04:30:0010.90 °C1009.90 hPa91.00 %9.50 °C 
04:15:0011.00 °C1010.00 hPa91.00 %9.60 °C 
04:00:0010.80 °C1010.00 hPa91.00 %9.40 °C 
03:45:0010.80 °C1010.20 hPa90.00 %9.20 °C 
03:30:0010.90 °C1009.90 hPa90.00 %9.30 °C 
03:15:0011.10 °C1010.00 hPa90.00 %9.50 °C 
03:00:0011.50 °C1010.00 hPa89.00 %9.80 °C 
02:45:0011.60 °C1010.10 hPa89.00 %9.90 °C 
02:30:0011.80 °C1010.20 hPa89.00 %10.00 °C 
02:15:0012.10 °C1010.10 hPa89.00 %10.30 °C 
02:00:0012.40 °C1010.10 hPa89.00 %10.60 °C 
01:45:0012.70 °C1010.00 hPa88.00 %10.80 °C 
01:30:0012.90 °C1010.10 hPa88.00 %11.00 °C 
01:15:0013.00 °C1010.30 hPa88.00 %11.10 °C 
01:00:0013.20 °C1010.30 hPa88.00 %11.30 °C 
00:45:0013.30 °C1010.50 hPa87.00 %11.20 °C 
00:30:0013.40 °C1010.30 hPa87.00 %11.30 °C 
00:15:0013.50 °C1010.40 hPa86.00 %11.20 °C 
00:00:0013.80 °C1010.40 hPa86.00 %11.50 °C 

Permanenter Link zu dieser Seite: Wetter im Erzgebirge am 13.07.2016
Performance-Info: Die Erstellung der Seite / Statistik(en) / Tabelle(n) erforderte 5 Datenbankserver-Abfrage(n) und dauerte 124 Millisekunden. (Dieser Messwert ist von der Gesamt-Auslastung des Servers abhängig.)
Erzgebirge - Wetter | Erzgebirge - Wetter (Mobilgeräte) | Komplette Klimadatenbank